Portada
METAR-TAF:

METAR-TAF

Aeropuertos :

Tarento, Italia

latitud: 40-31N, longitud: 017-24E, altitud: 64 m

Observación

El informe se hizo hace 5 horas y 39 minutos, a las 18:50 UTC
Viento 11 kt del oeste-suroeste
Temperatura 15°C
Humedad 55%
Presión 1003 hPa
Visibilidad 10 km o más
sin nubes por debajo de 1500 m y sin presencia de cumulonimbus.

METAR: LIBG 261850Z 24011KT CAVOK 15/06 Q1003

Hora: 01:29 (00:29 UTC)

Pronóstico

El informe se hizo hace 7 horas y 29 minutos, a las 17:00 UTC
Pronóstico válido del 26 a las 18 UTC al 27 a las 03 UTC
Viento 16 kt del suroeste con ráfagas de 27 kt
Visibilidad 10 km o más
Nubes dispersas a una altura de 3000 ft

TAF: LIBG 261700Z 2618/2703 23016G27KT 9999 SCT030

Observaciones y pronósticos meteorológicos de más de 4000 aeropuertos (mensajes METAR y TAF).

Los puntos amarillos y rojos representan las estaciones disponibles.

Ponga el ratón en el punto deseado para ver el nombre de la estación.

Haga clic para ver las observaciones y los pronósticos meteorológicos.

Para cambiar el mapa : haga clic en los botones verdes con una cruz de color negro para hacer un zoom, en el botón verde con un guión para alejar o en las flechas verdes para mapas adyacentes.


METAR-TAF: